createdAt,value
2023-03-11T00:00:41.275Z,0.93
2023-03-11T00:03:09.687Z,1.00
2023-03-11T00:05:39.479Z,1.07
2023-03-11T00:08:12.222Z,1.43
2023-03-11T00:10:44.444Z,1.20
2023-03-11T00:13:16.293Z,1.20
2023-03-11T00:15:47.347Z,1.10
2023-03-11T00:18:16.921Z,1.20
2023-03-11T00:20:45.818Z,1.07
2023-03-11T00:23:16.020Z,1.03
2023-03-11T00:25:47.267Z,1.07
2023-03-11T00:28:15.477Z,0.93
2023-03-11T00:30:45.368Z,1.00
2023-03-11T00:33:16.705Z,1.43
2023-03-11T00:35:46.776Z,1.07
2023-03-11T00:38:17.297Z,1.40
2023-03-11T00:40:51.839Z,1.30
2023-03-11T00:43:19.386Z,1.50
2023-03-11T00:45:49.013Z,1.33
2023-03-11T00:48:18.355Z,1.30
2023-03-11T00:50:45.465Z,1.47
2023-03-11T00:53:13.937Z,1.20
2023-03-11T00:55:41.035Z,1.20
2023-03-11T00:58:14.735Z,1.30
2023-03-11T01:00:54.536Z,1.10
2023-03-11T01:03:21.976Z,1.30
2023-03-11T01:05:49.495Z,1.43
2023-03-11T01:08:17.776Z,1.30
2023-03-11T01:10:45.050Z,1.50
2023-03-11T01:13:12.691Z,1.23
2023-03-11T01:15:41.204Z,1.40
2023-03-11T01:18:08.336Z,1.40
2023-03-11T01:20:38.292Z,1.30
2023-03-11T01:23:07.359Z,1.30
2023-03-11T01:25:36.923Z,1.23
2023-03-11T01:28:08.053Z,1.40
2023-03-11T01:30:38.125Z,1.10
2023-03-11T01:33:08.037Z,1.00
2023-03-11T01:35:36.881Z,1.20
2023-03-11T01:38:04.185Z,1.20
2023-03-11T01:40:40.867Z,1.10
2023-03-11T01:43:37.238Z,1.17
2023-03-11T01:46:12.039Z,1.10
2023-03-11T01:48:45.214Z,1.20
2023-03-11T01:51:12.489Z,1.30
2023-03-11T01:53:41.940Z,1.20
2023-03-11T01:56:09.487Z,1.20
2023-03-11T01:58:39.952Z,1.00
2023-03-11T02:01:07.826Z,1.20
2023-03-11T02:03:38.565Z,1.00
2023-03-11T02:06:13.133Z,1.20
2023-03-11T02:08:42.436Z,0.90
2023-03-11T02:11:15.674Z,0.80
2023-03-11T02:13:46.593Z,1.00
2023-03-11T02:16:15.301Z,0.97
2023-03-11T02:18:43.574Z,0.67
2023-03-11T02:21:27.384Z,1.00
2023-03-11T02:24:24.322Z,1.00
2023-03-11T02:26:56.420Z,1.00
2023-03-11T02:29:26.885Z,1.00
2023-03-11T02:31:56.966Z,1.10
2023-03-11T02:34:28.990Z,1.10
2023-03-11T02:36:59.219Z,1.17
2023-03-11T02:39:35.174Z,1.20
2023-03-11T02:42:24.025Z,1.23
2023-03-11T02:45:01.478Z,1.30
2023-03-11T02:47:30.832Z,1.30
2023-03-11T02:49:57.841Z,1.23
2023-03-11T02:52:27.775Z,1.23
2023-03-11T02:54:55.654Z,1.30
2023-03-11T02:57:22.887Z,1.27
2023-03-11T02:59:49.909Z,1.40
2023-03-11T03:02:17.184Z,1.30
2023-03-11T03:04:44.532Z,1.20
2023-03-11T03:07:11.550Z,1.43
2023-03-11T03:09:38.715Z,1.37
2023-03-11T03:12:06.194Z,1.37
2023-03-11T03:14:35.180Z,1.60
2023-03-11T03:17:03.576Z,1.40
2023-03-11T03:19:33.335Z,1.30
2023-03-11T03:22:00.274Z,1.43
2023-03-11T03:24:27.621Z,1.40
2023-03-11T03:26:54.527Z,1.30
2023-03-11T03:29:21.686Z,1.50
2023-03-11T03:31:51.028Z,1.60
2023-03-11T03:34:20.317Z,1.43
2023-03-11T03:36:47.381Z,1.30
2023-03-11T03:39:20.011Z,1.43
2023-03-11T03:41:50.121Z,1.47
2023-03-11T03:44:19.877Z,1.20
2023-03-11T03:46:47.522Z,1.57
2023-03-11T03:49:14.479Z,1.17
2023-03-11T03:51:42.695Z,1.20
2023-03-11T03:54:39.997Z,1.50
2023-03-11T03:57:07.127Z,1.30
2023-03-11T03:59:42.396Z,1.30
2023-03-11T04:02:10.873Z,1.20
2023-03-11T04:04:37.927Z,1.20
2023-03-11T04:07:06.636Z,1.20
2023-03-11T04:09:35.863Z,1.23
2023-03-11T04:12:03.612Z,1.20
2023-03-11T04:14:33.663Z,1.20
2023-03-11T04:17:01.857Z,1.07
2023-03-11T04:19:30.492Z,1.00
2023-03-11T04:22:00.956Z,1.30
2023-03-11T04:24:28.940Z,0.93
2023-03-11T04:26:57.945Z,1.10
2023-03-11T04:29:25.032Z,1.20
2023-03-11T04:31:55.264Z,1.10
2023-03-11T04:34:22.903Z,0.73
2023-03-11T04:36:53.760Z,0.87
2023-03-11T04:39:24.923Z,0.83
2023-03-11T04:41:53.023Z,0.87
2023-03-11T04:44:23.871Z,0.70
2023-03-11T04:46:52.532Z,0.70
2023-03-11T04:49:19.602Z,0.70
2023-03-11T04:51:48.806Z,0.80
2023-03-11T04:54:19.268Z,0.80
2023-03-11T04:56:46.408Z,0.80
2023-03-11T04:59:13.658Z,0.90
2023-03-11T05:01:42.436Z,0.80
2023-03-11T05:04:11.028Z,0.80
2023-03-11T05:06:41.935Z,0.93
2023-03-11T05:09:09.271Z,0.80
2023-03-11T05:11:39.573Z,1.00
2023-03-11T05:14:07.583Z,1.00
2023-03-11T05:16:37.474Z,0.77
2023-03-11T05:19:25.443Z,0.90
2023-03-11T05:21:53.028Z,1.00
2023-03-11T05:24:20.332Z,0.87
2023-03-11T05:26:48.659Z,1.00
2023-03-11T05:29:16.916Z,0.80
2023-03-11T05:31:45.035Z,0.90
2023-03-11T05:34:11.985Z,1.13
2023-03-11T05:36:39.131Z,1.03
2023-03-11T05:39:06.880Z,0.93
2023-03-11T05:41:38.230Z,1.00
2023-03-11T05:44:05.408Z,1.00
2023-03-11T05:46:32.823Z,1.00
2023-03-11T05:49:01.113Z,0.97
2023-03-11T05:51:29.531Z,0.90
2023-03-11T05:53:56.705Z,1.10
2023-03-11T05:56:33.858Z,1.30
2023-03-11T05:59:03.544Z,0.80
2023-03-11T06:01:34.501Z,1.10
2023-03-11T06:04:02.509Z,0.77
2023-03-11T06:06:30.049Z,1.00
2023-03-11T06:08:59.662Z,0.90
2023-03-11T06:11:29.894Z,1.10
2023-03-11T06:13:58.177Z,1.03
2023-03-11T06:16:27.947Z,1.13
2023-03-11T06:19:00.906Z,1.00
2023-03-11T06:21:33.849Z,1.07
2023-03-11T06:24:01.695Z,1.10
2023-03-11T06:26:30.209Z,1.17
2023-03-11T06:28:57.235Z,1.20
2023-03-11T06:31:27.063Z,1.13
2023-03-11T06:34:02.365Z,1.07
2023-03-11T06:36:30.794Z,1.07
2023-03-11T06:39:00.141Z,1.20
2023-03-11T06:41:28.213Z,1.30
2023-03-11T06:44:00.009Z,1.20
2023-03-11T06:46:30.846Z,1.20
2023-03-11T06:48:58.107Z,1.17
2023-03-11T06:51:25.193Z,1.30
2023-03-11T06:53:53.414Z,1.00
2023-03-11T06:56:23.238Z,1.10
2023-03-11T06:59:01.115Z,1.03
2023-03-11T07:01:34.356Z,1.00
2023-03-11T07:04:04.398Z,1.20
2023-03-11T07:06:32.517Z,1.40
2023-03-11T07:09:05.734Z,1.20
2023-03-11T07:11:34.661Z,1.10
2023-03-11T07:14:10.236Z,1.30
2023-03-11T07:16:41.505Z,1.37
2023-03-11T07:19:22.131Z,1.00
2023-03-11T07:21:51.708Z,1.23
2023-03-11T07:24:18.883Z,1.20
2023-03-11T07:26:46.556Z,1.30
2023-03-11T07:29:14.174Z,2.00
2023-03-11T07:31:42.628Z,1.50
2023-03-11T07:34:12.680Z,2.00
2023-03-11T07:36:41.801Z,1.77
2023-03-11T07:39:12.773Z,1.30
2023-03-11T07:41:39.758Z,1.40
2023-03-11T07:44:08.092Z,1.33
2023-03-11T07:46:36.350Z,1.37
2023-03-11T07:49:03.912Z,1.30
2023-03-11T07:51:35.491Z,1.33
2023-03-11T07:54:03.277Z,2.97
2023-03-11T07:56:32.538Z,1.20
2023-03-11T07:59:00.890Z,1.37
2023-03-11T08:01:35.930Z,1.30
2023-03-11T08:04:12.915Z,1.43
2023-03-11T08:06:42.984Z,1.33
2023-03-11T08:09:10.231Z,1.47
2023-03-11T08:11:38.136Z,1.13
2023-03-11T08:14:06.392Z,1.50
2023-03-11T08:16:33.880Z,1.30
2023-03-11T08:19:00.892Z,1.30
2023-03-11T08:21:31.863Z,1.30
2023-03-11T08:24:05.060Z,1.60
2023-03-11T08:26:34.078Z,1.40
2023-03-11T08:29:01.590Z,1.40
2023-03-11T08:31:31.928Z,1.40
2023-03-11T08:34:04.096Z,1.40
2023-03-11T08:36:31.689Z,1.40
2023-03-11T08:38:59.497Z,1.40
2023-03-11T08:41:27.688Z,1.50
2023-03-11T08:43:54.811Z,1.30
2023-03-11T08:46:27.167Z,1.40
2023-03-11T08:48:55.102Z,1.20
2023-03-11T08:51:25.705Z,1.30
2023-03-11T08:53:53.207Z,1.20
2023-03-11T08:56:22.759Z,1.03
2023-03-11T08:58:50.981Z,1.10
2023-03-11T09:01:18.310Z,1.10
2023-03-11T09:03:46.593Z,1.00
2023-03-11T09:06:15.907Z,1.00
2023-03-11T09:08:44.544Z,0.83
2023-03-11T09:11:13.647Z,1.00
2023-03-11T09:13:42.920Z,1.07
2023-03-11T09:16:22.910Z,1.10
2023-03-11T09:18:50.300Z,1.00
2023-03-11T09:21:17.742Z,1.00
2023-03-11T09:23:45.004Z,1.07
2023-03-11T09:26:12.964Z,0.87
2023-03-11T09:28:41.063Z,1.00
2023-03-11T09:31:08.760Z,0.80
2023-03-11T09:33:41.326Z,0.77
2023-03-11T09:36:12.184Z,1.07
2023-03-11T09:38:39.155Z,1.07
2023-03-11T09:41:18.752Z,0.93
2023-03-11T09:43:45.849Z,1.10
2023-03-11T09:46:31.941Z,1.00
2023-03-11T09:49:37.485Z,2.63
2023-03-11T09:52:14.647Z,1.00
2023-03-11T09:54:52.507Z,0.80
2023-03-11T09:57:34.262Z,0.90
2023-03-11T10:00:04.363Z,1.00
2023-03-11T10:02:40.726Z,0.90
2023-03-11T10:05:22.138Z,0.90
2023-03-11T10:08:11.828Z,0.80
2023-03-11T10:10:58.244Z,0.88
2023-03-11T10:13:45.693Z,0.70
2023-03-11T10:16:30.015Z,0.70
2023-03-11T10:19:31.161Z,0.80
2023-03-11T10:22:24.429Z,0.80
2023-03-11T10:25:10.575Z,1.30
2023-03-11T10:28:08.616Z,1.00
2023-03-11T10:30:52.482Z,0.80
2023-03-11T10:33:32.324Z,0.95
2023-03-11T10:36:13.017Z,0.73
2023-03-11T10:38:47.828Z,1.20
2023-03-11T10:41:53.510Z,0.87
2023-03-11T10:44:23.995Z,0.70
2023-03-11T10:46:54.164Z,0.70
2023-03-11T10:49:23.692Z,0.90
2023-03-11T10:51:53.635Z,1.60
2023-03-11T10:54:28.633Z,1.00
2023-03-11T10:57:18.975Z,1.00
2023-03-11T10:59:49.817Z,0.90
2023-03-11T11:02:32.869Z,0.90
2023-03-11T11:05:17.942Z,2.10
2023-03-11T11:07:48.954Z,1.20
2023-03-11T11:10:22.016Z,2.67
2023-03-11T11:13:22.313Z,1.80
2023-03-11T11:15:56.030Z,2.20
2023-03-11T11:18:37.190Z,2.50
2023-03-11T11:21:08.855Z,2.10
2023-03-11T11:23:41.283Z,1.50
2023-03-11T11:26:23.990Z,1.70
2023-03-11T11:29:10.871Z,1.30
2023-03-11T11:31:44.852Z,1.30
2023-03-11T11:34:33.329Z,1.30
2023-03-11T11:37:06.883Z,1.23
2023-03-11T11:39:52.125Z,0.90
2023-03-11T11:42:20.006Z,1.30
2023-03-11T11:44:51.373Z,1.20
2023-03-11T11:47:25.364Z,1.07
2023-03-11T11:49:59.423Z,1.83
2023-03-11T11:52:33.103Z,0.80
2023-03-11T11:55:21.195Z,1.20
2023-03-11T11:57:49.650Z,0.90
2023-03-11T12:00:24.998Z,1.00
2023-03-11T12:03:13.545Z,0.90
2023-03-11T12:06:00.288Z,1.03
2023-03-11T12:08:34.644Z,1.10
2023-03-11T12:11:03.542Z,0.97
2023-03-11T12:14:00.609Z,1.10
2023-03-11T12:16:46.272Z,0.90
2023-03-11T12:19:19.746Z,1.10
2023-03-11T12:22:10.782Z,1.13
2023-03-11T12:25:01.963Z,0.80
2023-03-11T12:27:47.296Z,1.20
2023-03-11T12:30:33.719Z,1.00
2023-03-11T12:33:06.553Z,1.10
2023-03-11T12:35:36.107Z,1.00
2023-03-11T12:38:17.368Z,1.03
2023-03-11T12:40:59.383Z,1.10
2023-03-11T12:43:36.135Z,1.23
2023-03-11T12:46:08.372Z,1.30
2023-03-11T12:48:47.317Z,1.00
2023-03-11T12:51:26.510Z,1.10
2023-03-11T12:53:57.064Z,0.93
2023-03-11T12:56:39.738Z,1.10
2023-03-11T12:59:38.540Z,1.60
2023-03-11T13:02:36.883Z,1.00
2023-03-11T13:05:42.987Z,1.10
2023-03-11T13:08:17.025Z,1.03
2023-03-11T13:10:46.653Z,1.10
2023-03-11T13:13:23.582Z,1.00
2023-03-11T13:15:53.743Z,1.13
2023-03-11T13:18:26.864Z,1.47
2023-03-11T13:21:05.733Z,0.90
2023-03-11T13:23:38.232Z,0.90
2023-03-11T13:26:37.484Z,1.00
2023-03-11T13:29:07.399Z,1.00
2023-03-11T13:31:55.787Z,1.00
2023-03-11T13:34:45.742Z,1.03
2023-03-11T13:37:42.600Z,1.13
2023-03-11T13:40:42.718Z,1.20
2023-03-11T13:43:32.933Z,1.20
2023-03-11T13:46:01.645Z,1.50
2023-03-11T13:48:49.653Z,1.27
2023-03-11T13:51:32.859Z,0.90
2023-03-11T13:54:28.507Z,1.23
2023-03-11T13:57:00.005Z,1.60
2023-03-11T13:59:31.946Z,1.23
2023-03-11T14:02:26.792Z,0.93
2023-03-11T14:05:17.147Z,1.20
2023-03-11T14:07:44.410Z,1.10
2023-03-11T14:10:20.238Z,1.30
2023-03-11T14:12:48.042Z,1.20
2023-03-11T14:15:20.295Z,1.00
2023-03-11T14:17:48.833Z,1.40
2023-03-11T14:20:29.006Z,1.20
2023-03-11T14:22:56.996Z,1.27
2023-03-11T14:25:31.277Z,1.57
2023-03-11T14:28:02.112Z,1.50
2023-03-11T14:30:32.085Z,1.40
2023-03-11T14:33:21.890Z,1.20
2023-03-11T14:35:57.727Z,1.07
2023-03-11T14:38:27.750Z,1.40
2023-03-11T14:41:06.280Z,2.50
2023-03-11T14:43:38.037Z,2.10
2023-03-11T14:46:07.914Z,2.03
2023-03-11T14:48:35.404Z,4.37
2023-03-11T14:51:07.883Z,2.30
2023-03-11T14:53:45.709Z,1.37
2023-03-11T14:56:24.875Z,1.30
2023-03-11T14:59:07.398Z,1.20
2023-03-11T15:01:42.284Z,1.00
2023-03-11T15:04:17.760Z,1.10
2023-03-11T15:06:46.666Z,1.30
2023-03-11T15:09:16.684Z,1.20
2023-03-11T15:11:53.056Z,1.07
2023-03-11T15:14:26.955Z,1.00
2023-03-11T15:16:56.345Z,0.97
2023-03-11T15:19:29.923Z,0.80
2023-03-11T15:22:24.764Z,1.20
2023-03-11T15:24:54.506Z,0.97
2023-03-11T15:27:42.135Z,1.30
2023-03-11T15:30:20.194Z,1.30
2023-03-11T15:32:49.159Z,1.93
2023-03-11T15:35:18.476Z,2.23
2023-03-11T15:37:48.322Z,3.30
2023-03-11T15:40:42.420Z,4.90
2023-03-11T15:43:14.791Z,2.60
2023-03-11T15:45:43.187Z,4.03
2023-03-11T15:48:12.116Z,4.87
2023-03-11T15:50:53.210Z,5.17
2023-03-11T15:53:23.335Z,6.00
2023-03-11T15:55:51.678Z,7.90
2023-03-11T15:58:20.580Z,13.70
2023-03-11T16:00:50.663Z,5.30
2023-03-11T16:03:18.530Z,5.43
2023-03-11T16:05:46.621Z,2.70
2023-03-11T16:08:14.492Z,6.83
2023-03-11T16:10:43.167Z,4.30
2023-03-11T16:13:15.522Z,5.47
2023-03-11T16:15:43.573Z,6.17
2023-03-11T16:18:11.687Z,4.33
2023-03-11T16:20:45.958Z,3.00
2023-03-11T16:23:20.037Z,2.80
2023-03-11T16:25:49.401Z,2.40
2023-03-11T16:28:18.815Z,3.30
2023-03-11T16:30:46.696Z,2.40
2023-03-11T16:33:15.497Z,4.63
2023-03-11T16:35:43.257Z,2.80
2023-03-11T16:38:11.288Z,3.67
2023-03-11T16:40:38.597Z,2.73
2023-03-11T16:43:10.476Z,2.80
2023-03-11T16:45:38.618Z,6.77
2023-03-11T16:48:08.004Z,3.17
2023-03-11T16:50:37.719Z,2.70
2023-03-11T16:53:05.310Z,2.70
2023-03-11T16:55:32.935Z,2.20
2023-03-11T16:58:00.428Z,2.30
2023-03-11T17:00:28.325Z,2.40
2023-03-11T17:02:55.919Z,2.43
2023-03-11T17:05:26.545Z,1.90
2023-03-11T17:08:00.163Z,1.60
2023-03-11T17:10:28.829Z,1.73
2023-03-11T17:12:56.550Z,2.27
2023-03-11T17:15:24.130Z,2.17
2023-03-11T17:17:52.798Z,1.93
2023-03-11T17:20:21.754Z,1.63
2023-03-11T17:22:49.550Z,1.97
2023-03-11T17:25:17.664Z,1.90
2023-03-11T17:27:45.593Z,1.90
2023-03-11T17:30:19.386Z,1.63
2023-03-11T17:32:52.521Z,1.70
2023-03-11T17:35:20.741Z,2.13
2023-03-11T17:37:48.960Z,2.07
2023-03-11T17:40:18.223Z,1.90
2023-03-11T17:42:45.444Z,2.20
2023-03-11T17:45:15.187Z,1.90
2023-03-11T17:47:43.815Z,1.53
2023-03-11T17:50:13.207Z,1.50
2023-03-11T17:52:40.630Z,2.10
2023-03-11T17:55:11.203Z,2.00
2023-03-11T17:57:45.419Z,2.00
2023-03-11T18:00:15.367Z,2.20
2023-03-11T18:02:43.735Z,2.37
2023-03-11T18:05:11.770Z,2.80
2023-03-11T18:07:43.052Z,2.30
2023-03-11T18:10:12.861Z,2.07
2023-03-11T18:12:43.776Z,1.73
2023-03-11T18:15:19.073Z,1.90
2023-03-11T18:17:47.853Z,1.73
2023-03-11T18:20:18.123Z,1.60
2023-03-11T18:22:47.133Z,1.60
2023-03-11T18:25:15.888Z,1.83
2023-03-11T18:27:44.365Z,1.80
2023-03-11T18:30:12.732Z,1.80
2023-03-11T18:32:41.683Z,1.80
2023-03-11T18:35:09.928Z,1.77
2023-03-11T18:37:37.994Z,1.80
2023-03-11T18:40:07.616Z,1.90
2023-03-11T18:42:35.775Z,2.07
2023-03-11T18:45:04.084Z,1.90
2023-03-11T18:47:36.026Z,1.60
2023-03-11T18:50:06.424Z,1.67
2023-03-11T18:52:33.824Z,1.90
2023-03-11T18:55:02.647Z,1.80
2023-03-11T18:57:30.592Z,1.83
2023-03-11T18:59:58.731Z,1.93
2023-03-11T19:02:27.340Z,2.30
2023-03-11T19:04:55.654Z,2.10
2023-03-11T19:07:23.958Z,2.10
2023-03-11T19:09:52.112Z,2.20
2023-03-11T19:12:20.261Z,2.30
2023-03-11T19:14:50.644Z,2.00
2023-03-11T19:17:22.646Z,2.00
2023-03-11T19:19:50.896Z,2.10
2023-03-11T19:22:18.950Z,2.30
2023-03-11T19:24:47.034Z,2.30
2023-03-11T19:27:14.932Z,1.93
2023-03-11T19:29:43.204Z,2.50
2023-03-11T19:32:11.793Z,3.50
2023-03-11T19:34:43.802Z,2.70
2023-03-11T19:37:11.578Z,2.47
2023-03-11T19:39:38.995Z,2.20
2023-03-11T19:42:07.370Z,3.10
2023-03-11T19:44:36.287Z,2.60
2023-03-11T19:47:06.967Z,2.17
2023-03-11T19:49:35.635Z,1.70
2023-03-11T19:52:05.040Z,2.20
2023-03-11T19:54:33.104Z,1.90
2023-03-11T19:57:00.953Z,2.17
2023-03-11T19:59:30.006Z,2.10
2023-03-11T20:01:58.419Z,2.20
2023-03-11T20:04:27.235Z,2.30
2023-03-11T20:06:55.374Z,2.83
2023-03-11T20:09:23.463Z,2.10
2023-03-11T20:11:51.588Z,1.97
2023-03-11T20:14:19.679Z,3.20
2023-03-11T20:16:47.968Z,2.87
2023-03-11T20:19:15.614Z,2.43
2023-03-11T20:21:45.890Z,3.00
2023-03-11T20:24:14.045Z,3.33
2023-03-11T20:26:42.016Z,3.00
2023-03-11T20:29:11.662Z,2.80
2023-03-11T20:31:41.553Z,2.73
2023-03-11T20:34:10.925Z,2.80
2023-03-11T20:36:38.775Z,3.37
2023-03-11T20:39:10.267Z,4.20
2023-03-11T20:41:41.241Z,2.77
2023-03-11T20:44:12.390Z,3.10
2023-03-11T20:46:40.955Z,3.30
2023-03-11T20:49:09.799Z,3.70
2023-03-11T20:51:41.366Z,2.97
2023-03-11T20:54:10.033Z,2.80
2023-03-11T20:56:38.208Z,2.47
2023-03-11T20:59:07.525Z,2.30
2023-03-11T21:01:36.943Z,2.43
2023-03-11T21:04:05.430Z,2.80
2023-03-11T21:06:38.442Z,3.07
2023-03-11T21:09:08.862Z,2.70
2023-03-11T21:11:37.202Z,2.40
2023-03-11T21:14:05.964Z,2.50
2023-03-11T21:16:35.485Z,2.33
2023-03-11T21:19:05.618Z,2.23
2023-03-11T21:21:33.103Z,2.40
2023-03-11T21:24:00.732Z,2.97
2023-03-11T21:26:28.409Z,3.03
2023-03-11T21:28:56.874Z,3.80
2023-03-11T21:31:29.301Z,3.63
2023-03-11T21:34:01.170Z,3.00
2023-03-11T21:36:29.930Z,3.10
2023-03-11T21:38:58.021Z,3.10
2023-03-11T21:41:27.326Z,2.80
2023-03-11T21:43:56.246Z,3.00
2023-03-11T21:46:27.058Z,3.00
2023-03-11T21:48:54.699Z,2.83
2023-03-11T21:51:23.004Z,2.90
2023-03-11T21:53:50.687Z,3.20
2023-03-11T21:56:18.385Z,2.77
2023-03-11T21:58:45.692Z,2.70
2023-03-11T22:01:13.776Z,2.77
2023-03-11T22:03:41.436Z,2.60
2023-03-11T22:06:11.404Z,2.97
2023-03-11T22:08:38.976Z,2.97
2023-03-11T22:11:19.060Z,2.40
2023-03-11T22:13:54.181Z,2.30
2023-03-11T22:16:23.083Z,2.63
2023-03-11T22:18:52.223Z,2.73
2023-03-11T22:21:20.860Z,2.70
2023-03-11T22:23:48.536Z,2.57
2023-03-11T22:26:16.012Z,2.80
2023-03-11T22:28:43.818Z,2.70
2023-03-11T22:31:13.342Z,2.77
2023-03-11T22:33:40.538Z,2.70
2023-03-11T22:36:09.409Z,2.70
2023-03-11T22:38:38.107Z,2.40
2023-03-11T22:41:07.674Z,2.63
2023-03-11T22:43:37.399Z,2.50
2023-03-11T22:46:05.774Z,2.60
2023-03-11T22:48:34.028Z,2.80
2023-03-11T22:51:01.025Z,2.57
2023-03-11T22:53:28.191Z,2.60
2023-03-11T22:55:55.265Z,2.80
2023-03-11T22:58:22.620Z,2.73
2023-03-11T23:00:49.732Z,2.80
2023-03-11T23:03:16.889Z,2.70
2023-03-11T23:05:45.917Z,2.50
2023-03-11T23:08:16.234Z,2.30
2023-03-11T23:10:45.478Z,2.80
2023-03-11T23:13:13.282Z,3.00
2023-03-11T23:15:42.080Z,3.13
2023-03-11T23:18:09.279Z,3.20
2023-03-11T23:20:37.837Z,3.20
2023-03-11T23:23:05.371Z,3.57
2023-03-11T23:25:33.177Z,3.00
2023-03-11T23:28:06.064Z,3.17
2023-03-11T23:30:33.593Z,3.30
2023-03-11T23:33:03.008Z,2.90
2023-03-11T23:35:32.933Z,3.13
2023-03-11T23:38:00.715Z,3.10
2023-03-11T23:40:27.845Z,3.20
2023-03-11T23:42:55.025Z,3.23
2023-03-11T23:45:22.191Z,3.20
2023-03-11T23:47:49.221Z,3.20
2023-03-11T23:50:16.360Z,3.10
2023-03-11T23:52:43.670Z,3.20
2023-03-11T23:55:11.089Z,2.97
2023-03-11T23:57:38.182Z,3.23
